sensor_id;sensor_type;location;lat;lon;timestamp;temperature;humidity
18502;DHT22;68437;52.236;5.710;2023-07-13T00:00:50;16.60;99.90
18502;DHT22;68437;52.236;5.710;2023-07-13T00:03:17;16.50;99.90
18502;DHT22;68437;52.236;5.710;2023-07-13T00:05:45;16.50;99.90
18502;DHT22;68437;52.236;5.710;2023-07-13T00:08:15;16.50;99.90
18502;DHT22;68437;52.236;5.710;2023-07-13T00:10:42;16.50;99.90
18502;DHT22;68437;52.236;5.710;2023-07-13T00:13:14;16.50;99.90
18502;DHT22;68437;52.236;5.710;2023-07-13T00:15:43;16.50;99.90
18502;DHT22;68437;52.236;5.710;2023-07-13T00:18:10;16.50;99.90
18502;DHT22;68437;52.236;5.710;2023-07-13T00:20:37;16.50;99.90
18502;DHT22;68437;52.236;5.710;2023-07-13T00:23:05;16.50;99.90
18502;DHT22;68437;52.236;5.710;2023-07-13T00:25:32;16.50;99.90
18502;DHT22;68437;52.236;5.710;2023-07-13T00:28:00;16.50;99.90
18502;DHT22;68437;52.236;5.710;2023-07-13T00:30:27;16.50;99.90
18502;DHT22;68437;52.236;5.710;2023-07-13T00:32:54;16.50;99.90
18502;DHT22;68437;52.236;5.710;2023-07-13T00:35:21;16.50;99.90
18502;DHT22;68437;52.236;5.710;2023-07-13T00:37:48;16.50;99.90
18502;DHT22;68437;52.236;5.710;2023-07-13T00:40:17;16.50;99.90
18502;DHT22;68437;52.236;5.710;2023-07-13T00:42:44;16.40;99.90
18502;DHT22;68437;52.236;5.710;2023-07-13T00:48:21;16.40;99.90
18502;DHT22;68437;52.236;5.710;2023-07-13T00:50:52;16.40;99.90
18502;DHT22;68437;52.236;5.710;2023-07-13T00:53:20;16.30;99.90
18502;DHT22;68437;52.236;5.710;2023-07-13T00:55:50;16.30;99.90
18502;DHT22;68437;52.236;5.710;2023-07-13T00:58:18;16.30;99.90
18502;DHT22;68437;52.236;5.710;2023-07-13T01:00:47;16.20;99.90
18502;DHT22;68437;52.236;5.710;2023-07-13T01:03:16;16.20;99.90
18502;DHT22;68437;52.236;5.710;2023-07-13T01:05:44;16.20;99.90
18502;DHT22;68437;52.236;5.710;2023-07-13T01:08:13;16.20;99.90
18502;DHT22;68437;52.236;5.710;2023-07-13T01:10:41;16.20;99.90
18502;DHT22;68437;52.236;5.710;2023-07-13T01:13:12;16.10;99.90
18502;DHT22;68437;52.236;5.710;2023-07-13T01:15:41;16.20;99.90
18502;DHT22;68437;52.236;5.710;2023-07-13T01:18:16;16.10;99.90
18502;DHT22;68437;52.236;5.710;2023-07-13T01:20:52;16.10;99.90
18502;DHT22;68437;52.236;5.710;2023-07-13T01:23:20;16.10;99.90
18502;DHT22;68437;52.236;5.710;2023-07-13T01:25:50;16.10;99.90
18502;DHT22;68437;52.236;5.710;2023-07-13T01:28:17;16.10;99.90
18502;DHT22;68437;52.236;5.710;2023-07-13T01:30:46;16.10;99.90
18502;DHT22;68437;52.236;5.710;2023-07-13T01:33:15;16.10;99.90
18502;DHT22;68437;52.236;5.710;2023-07-13T01:35:43;16.10;99.90
18502;DHT22;68437;52.236;5.710;2023-07-13T01:38:13;16.00;99.90
18502;DHT22;68437;52.236;5.710;2023-07-13T01:40:40;16.00;99.90
18502;DHT22;68437;52.236;5.710;2023-07-13T01:43:07;15.90;99.90
18502;DHT22;68437;52.236;5.710;2023-07-13T01:45:34;15.90;99.90
18502;DHT22;68437;52.236;5.710;2023-07-13T01:48:02;15.90;99.90
18502;DHT22;68437;52.236;5.710;2023-07-13T01:50:29;15.90;99.90
18502;DHT22;68437;52.236;5.710;2023-07-13T01:52:56;15.80;99.90
18502;DHT22;68437;52.236;5.710;2023-07-13T01:55:24;15.80;99.90
18502;DHT22;68437;52.236;5.710;2023-07-13T01:57:51;15.80;99.90
18502;DHT22;68437;52.236;5.710;2023-07-13T02:00:21;15.80;99.90
18502;DHT22;68437;52.236;5.710;2023-07-13T02:02:48;15.70;99.90
18502;DHT22;68437;52.236;5.710;2023-07-13T02:05:15;15.70;99.90
18502;DHT22;68437;52.236;5.710;2023-07-13T02:07:43;15.60;99.90
18502;DHT22;68437;52.236;5.710;2023-07-13T02:10:11;15.60;99.90
18502;DHT22;68437;52.236;5.710;2023-07-13T02:12:41;15.60;99.90
18502;DHT22;68437;52.236;5.710;2023-07-13T02:15:09;15.60;99.90
18502;DHT22;68437;52.236;5.710;2023-07-13T02:17:36;15.50;99.90
18502;DHT22;68437;52.236;5.710;2023-07-13T02:20:04;15.50;99.90
18502;DHT22;68437;52.236;5.710;2023-07-13T02:22:32;15.50;99.90
18502;DHT22;68437;52.236;5.710;2023-07-13T02:24:59;15.40;99.90
18502;DHT22;68437;52.236;5.710;2023-07-13T02:27:26;15.40;99.90
18502;DHT22;68437;52.236;5.710;2023-07-13T02:29:55;15.40;99.90
18502;DHT22;68437;52.236;5.710;2023-07-13T02:32:22;15.30;99.90
18502;DHT22;68437;52.236;5.710;2023-07-13T02:34:50;15.30;99.90
18502;DHT22;68437;52.236;5.710;2023-07-13T02:37:18;15.20;99.90
18502;DHT22;68437;52.236;5.710;2023-07-13T02:39:45;15.20;99.90
18502;DHT22;68437;52.236;5.710;2023-07-13T02:42:16;15.20;99.90
18502;DHT22;68437;52.236;5.710;2023-07-13T02:44:43;15.20;99.90
18502;DHT22;68437;52.236;5.710;2023-07-13T02:47:11;15.20;99.90
18502;DHT22;68437;52.236;5.710;2023-07-13T02:49:38;15.20;99.90
18502;DHT22;68437;52.236;5.710;2023-07-13T02:52:06;15.20;99.90
18502;DHT22;68437;52.236;5.710;2023-07-13T02:54:35;15.20;99.90
18502;DHT22;68437;52.236;5.710;2023-07-13T02:57:03;15.20;99.90
18502;DHT22;68437;52.236;5.710;2023-07-13T02:59:30;15.10;99.90
18502;DHT22;68437;52.236;5.710;2023-07-13T03:01:57;15.10;99.90
18502;DHT22;68437;52.236;5.710;2023-07-13T03:04:26;15.10;99.90
18502;DHT22;68437;52.236;5.710;2023-07-13T03:06:53;15.10;99.90
18502;DHT22;68437;52.236;5.710;2023-07-13T03:09:24;15.10;99.90
18502;DHT22;68437;52.236;5.710;2023-07-13T03:11:53;15.10;99.90
18502;DHT22;68437;52.236;5.710;2023-07-13T03:14:20;15.00;99.90
18502;DHT22;68437;52.236;5.710;2023-07-13T03:16:47;15.00;99.90
18502;DHT22;68437;52.236;5.710;2023-07-13T03:19:14;14.90;99.90
18502;DHT22;68437;52.236;5.710;2023-07-13T03:21:45;14.90;99.90
18502;DHT22;68437;52.236;5.710;2023-07-13T03:24:12;14.90;99.90
18502;DHT22;68437;52.236;5.710;2023-07-13T03:26:39;14.90;99.90
18502;DHT22;68437;52.236;5.710;2023-07-13T03:29:06;14.90;99.90
18502;DHT22;68437;52.236;5.710;2023-07-13T03:31:34;14.90;99.90
18502;DHT22;68437;52.236;5.710;2023-07-13T03:34:02;14.90;99.90
18502;DHT22;68437;52.236;5.710;2023-07-13T03:36:30;14.90;99.90
18502;DHT22;68437;52.236;5.710;2023-07-13T03:39:06;14.90;99.90
18502;DHT22;68437;52.236;5.710;2023-07-13T03:41:33;14.90;99.90
18502;DHT22;68437;52.236;5.710;2023-07-13T03:44:00;14.90;99.90
18502;DHT22;68437;52.236;5.710;2023-07-13T03:46:28;14.90;99.90
18502;DHT22;68437;52.236;5.710;2023-07-13T03:48:55;14.90;99.90
18502;DHT22;68437;52.236;5.710;2023-07-13T03:51:22;14.90;99.90
18502;DHT22;68437;52.236;5.710;2023-07-13T03:53:49;14.90;99.90
18502;DHT22;68437;52.236;5.710;2023-07-13T03:56:18;14.90;99.90
18502;DHT22;68437;52.236;5.710;2023-07-13T03:58:47;14.90;99.90
18502;DHT22;68437;52.236;5.710;2023-07-13T04:01:15;14.90;99.90
18502;DHT22;68437;52.236;5.710;2023-07-13T04:03:43;14.90;99.90
18502;DHT22;68437;52.236;5.710;2023-07-13T04:06:15;14.90;99.90
18502;DHT22;68437;52.236;5.710;2023-07-13T04:08:47;14.90;99.90
18502;DHT22;68437;52.236;5.710;2023-07-13T04:11:16;14.90;99.90
18502;DHT22;68437;52.236;5.710;2023-07-13T04:13:44;14.90;99.90
18502;DHT22;68437;52.236;5.710;2023-07-13T04:16:11;14.90;99.90
18502;DHT22;68437;52.236;5.710;2023-07-13T04:18:39;14.90;99.90
18502;DHT22;68437;52.236;5.710;2023-07-13T04:21:07;15.00;99.90
18502;DHT22;68437;52.236;5.710;2023-07-13T04:23:35;15.00;99.90
18502;DHT22;68437;52.236;5.710;2023-07-13T04:26:02;15.00;99.90
18502;DHT22;68437;52.236;5.710;2023-07-13T04:28:29;15.10;99.90
18502;DHT22;68437;52.236;5.710;2023-07-13T04:31:00;15.10;99.90
18502;DHT22;68437;52.236;5.710;2023-07-13T04:33:29;15.20;99.90
18502;DHT22;68437;52.236;5.710;2023-07-13T04:35:56;15.40;99.90
18502;DHT22;68437;52.236;5.710;2023-07-13T04:38:28;15.70;99.90
18502;DHT22;68437;52.236;5.710;2023-07-13T04:40:57;16.00;99.90
18502;DHT22;68437;52.236;5.710;2023-07-13T04:43:24;16.30;99.90
18502;DHT22;68437;52.236;5.710;2023-07-13T04:45:51;16.50;99.90
18502;DHT22;68437;52.236;5.710;2023-07-13T04:48:21;16.60;99.90
18502;DHT22;68437;52.236;5.710;2023-07-13T04:50:53;16.40;99.90
18502;DHT22;68437;52.236;5.710;2023-07-13T04:53:20;16.20;99.90
18502;DHT22;68437;52.236;5.710;2023-07-13T04:55:47;16.00;99.90
18502;DHT22;68437;52.236;5.710;2023-07-13T04:58:14;15.90;99.90
18502;DHT22;68437;52.236;5.710;2023-07-13T05:00:41;15.90;99.90
18502;DHT22;68437;52.236;5.710;2023-07-13T05:03:08;15.80;99.90
18502;DHT22;68437;52.236;5.710;2023-07-13T05:05:37;15.80;99.90
18502;DHT22;68437;52.236;5.710;2023-07-13T05:08:04;15.80;99.90
18502;DHT22;68437;52.236;5.710;2023-07-13T05:10:33;15.90;99.90
18502;DHT22;68437;52.236;5.710;2023-07-13T05:13:00;15.90;99.90
18502;DHT22;68437;52.236;5.710;2023-07-13T05:15:27;16.00;99.90
18502;DHT22;68437;52.236;5.710;2023-07-13T05:17:54;16.00;99.90
18502;DHT22;68437;52.236;5.710;2023-07-13T05:20:21;16.10;99.90
18502;DHT22;68437;52.236;5.710;2023-07-13T05:22:49;16.10;99.90
18502;DHT22;68437;52.236;5.710;2023-07-13T05:25:19;16.10;99.90
18502;DHT22;68437;52.236;5.710;2023-07-13T05:27:46;16.20;99.90
18502;DHT22;68437;52.236;5.710;2023-07-13T05:30:14;16.20;99.90
18502;DHT22;68437;52.236;5.710;2023-07-13T05:32:41;16.20;99.90
18502;DHT22;68437;52.236;5.710;2023-07-13T05:35:08;16.30;99.90
18502;DHT22;68437;52.236;5.710;2023-07-13T05:37:37;16.20;99.90
18502;DHT22;68437;52.236;5.710;2023-07-13T05:40:07;16.20;99.90
18502;DHT22;68437;52.236;5.710;2023-07-13T05:42:34;16.20;99.90
18502;DHT22;68437;52.236;5.710;2023-07-13T05:45:02;16.30;99.90
18502;DHT22;68437;52.236;5.710;2023-07-13T05:47:29;16.30;99.90
18502;DHT22;68437;52.236;5.710;2023-07-13T05:49:56;16.30;99.90
18502;DHT22;68437;52.236;5.710;2023-07-13T05:52:23;16.30;99.90
18502;DHT22;68437;52.236;5.710;2023-07-13T05:54:50;16.40;99.90
18502;DHT22;68437;52.236;5.710;2023-07-13T05:57:18;16.50;99.90
18502;DHT22;68437;52.236;5.710;2023-07-13T05:59:45;16.60;99.90
18502;DHT22;68437;52.236;5.710;2023-07-13T06:02:13;16.60;99.90
18502;DHT22;68437;52.236;5.710;2023-07-13T06:04:40;16.70;99.90
18502;DHT22;68437;52.236;5.710;2023-07-13T06:07:10;16.80;99.90
18502;DHT22;68437;52.236;5.710;2023-07-13T06:09:40;16.80;99.90
18502;DHT22;68437;52.236;5.710;2023-07-13T06:12:07;16.90;99.90
18502;DHT22;68437;52.236;5.710;2023-07-13T06:14:38;16.90;99.90
18502;DHT22;68437;52.236;5.710;2023-07-13T06:17:08;17.00;99.90
18502;DHT22;68437;52.236;5.710;2023-07-13T06:19:35;17.00;99.90
18502;DHT22;68437;52.236;5.710;2023-07-13T06:22:03;17.10;99.90
18502;DHT22;68437;52.236;5.710;2023-07-13T06:24:32;17.10;99.90
18502;DHT22;68437;52.236;5.710;2023-07-13T06:26:59;17.10;99.90
18502;DHT22;68437;52.236;5.710;2023-07-13T06:29:26;17.10;99.90
18502;DHT22;68437;52.236;5.710;2023-07-13T06:31:54;17.20;99.90
18502;DHT22;68437;52.236;5.710;2023-07-13T06:34:21;17.20;99.90
18502;DHT22;68437;52.236;5.710;2023-07-13T06:36:48;17.30;99.90
18502;DHT22;68437;52.236;5.710;2023-07-13T06:39:15;17.40;99.90
18502;DHT22;68437;52.236;5.710;2023-07-13T06:41:42;17.60;99.90
18502;DHT22;68437;52.236;5.710;2023-07-13T06:44:09;17.60;99.90
18502;DHT22;68437;52.236;5.710;2023-07-13T06:46:36;17.80;99.90
18502;DHT22;68437;52.236;5.710;2023-07-13T06:49:04;17.90;99.90
18502;DHT22;68437;52.236;5.710;2023-07-13T06:51:31;18.00;99.90
18502;DHT22;68437;52.236;5.710;2023-07-13T06:54:01;18.00;99.90
18502;DHT22;68437;52.236;5.710;2023-07-13T06:56:28;18.10;99.90
18502;DHT22;68437;52.236;5.710;2023-07-13T06:58:58;18.00;99.90
18502;DHT22;68437;52.236;5.710;2023-07-13T07:01:25;17.90;99.90
18502;DHT22;68437;52.236;5.710;2023-07-13T07:03:52;17.90;99.90
18502;DHT22;68437;52.236;5.710;2023-07-13T07:06:21;18.00;99.90
18502;DHT22;68437;52.236;5.710;2023-07-13T07:08:51;18.00;99.90
18502;DHT22;68437;52.236;5.710;2023-07-13T07:11:21;17.90;99.90
18502;DHT22;68437;52.236;5.710;2023-07-13T07:13:50;17.80;99.90
18502;DHT22;68437;52.236;5.710;2023-07-13T07:16:17;17.90;99.90
18502;DHT22;68437;52.236;5.710;2023-07-13T07:18:45;17.90;99.90
18502;DHT22;68437;52.236;5.710;2023-07-13T07:21:13;18.10;99.90
18502;DHT22;68437;52.236;5.710;2023-07-13T07:23:42;18.30;99.90
18502;DHT22;68437;52.236;5.710;2023-07-13T07:26:09;18.40;99.90
18502;DHT22;68437;52.236;5.710;2023-07-13T07:28:37;18.50;99.90
18502;DHT22;68437;52.236;5.710;2023-07-13T07:31:04;18.40;99.90
18502;DHT22;68437;52.236;5.710;2023-07-13T07:33:32;18.40;99.90
18502;DHT22;68437;52.236;5.710;2023-07-13T07:36:00;18.40;99.90
18502;DHT22;68437;52.236;5.710;2023-07-13T07:38:27;18.20;99.90
18502;DHT22;68437;52.236;5.710;2023-07-13T07:40:55;18.20;99.90
18502;DHT22;68437;52.236;5.710;2023-07-13T07:43:24;18.30;99.90
18502;DHT22;68437;52.236;5.710;2023-07-13T07:45:51;18.50;99.90
18502;DHT22;68437;52.236;5.710;2023-07-13T07:48:18;18.60;99.90
18502;DHT22;68437;52.236;5.710;2023-07-13T07:50:48;18.70;99.90
18502;DHT22;68437;52.236;5.710;2023-07-13T07:53:15;18.70;99.90
18502;DHT22;68437;52.236;5.710;2023-07-13T07:55:42;18.70;99.90
18502;DHT22;68437;52.236;5.710;2023-07-13T07:58:10;18.60;99.90
18502;DHT22;68437;52.236;5.710;2023-07-13T08:00:37;18.50;99.90
18502;DHT22;68437;52.236;5.710;2023-07-13T08:03:04;18.40;99.90
18502;DHT22;68437;52.236;5.710;2023-07-13T08:05:31;18.00;99.90
18502;DHT22;68437;52.236;5.710;2023-07-13T08:08:01;17.90;99.90
18502;DHT22;68437;52.236;5.710;2023-07-13T08:10:31;17.80;99.90
18502;DHT22;68437;52.236;5.710;2023-07-13T08:12:59;17.80;99.90
18502;DHT22;68437;52.236;5.710;2023-07-13T08:15:30;17.80;99.90
18502;DHT22;68437;52.236;5.710;2023-07-13T08:17:57;17.80;99.90
18502;DHT22;68437;52.236;5.710;2023-07-13T08:20:24;17.80;99.90
18502;DHT22;68437;52.236;5.710;2023-07-13T08:22:51;17.90;99.90
18502;DHT22;68437;52.236;5.710;2023-07-13T08:25:18;17.90;99.90
18502;DHT22;68437;52.236;5.710;2023-07-13T08:27:46;17.90;99.90
18502;DHT22;68437;52.236;5.710;2023-07-13T08:30:13;18.00;99.90
18502;DHT22;68437;52.236;5.710;2023-07-13T08:32:41;18.20;99.90
18502;DHT22;68437;52.236;5.710;2023-07-13T08:35:08;18.20;99.90
18502;DHT22;68437;52.236;5.710;2023-07-13T08:37:35;18.20;99.90
18502;DHT22;68437;52.236;5.710;2023-07-13T08:40:05;18.20;99.90
18502;DHT22;68437;52.236;5.710;2023-07-13T08:42:36;18.30;99.90
18502;DHT22;68437;52.236;5.710;2023-07-13T08:45:11;18.60;99.90
18502;DHT22;68437;52.236;5.710;2023-07-13T08:47:45;18.80;99.90
18502;DHT22;68437;52.236;5.710;2023-07-13T08:50:15;18.80;99.90
18502;DHT22;68437;52.236;5.710;2023-07-13T08:52:44;19.00;99.90
18502;DHT22;68437;52.236;5.710;2023-07-13T08:55:16;19.20;99.90
18502;DHT22;68437;52.236;5.710;2023-07-13T08:57:49;19.10;99.90
18502;DHT22;68437;52.236;5.710;2023-07-13T09:00:18;19.10;99.90
18502;DHT22;68437;52.236;5.710;2023-07-13T09:02:53;18.90;99.90
18502;DHT22;68437;52.236;5.710;2023-07-13T09:05:25;19.00;99.90
18502;DHT22;68437;52.236;5.710;2023-07-13T09:08:12;19.10;99.90
18502;DHT22;68437;52.236;5.710;2023-07-13T09:10:48;19.10;99.90
18502;DHT22;68437;52.236;5.710;2023-07-13T09:13:24;18.90;99.90
18502;DHT22;68437;52.236;5.710;2023-07-13T09:15:55;18.70;99.90
18502;DHT22;68437;52.236;5.710;2023-07-13T09:18:27;18.70;99.90
18502;DHT22;68437;52.236;5.710;2023-07-13T09:20:59;18.70;99.90
18502;DHT22;68437;52.236;5.710;2023-07-13T09:23:28;18.50;99.90
18502;DHT22;68437;52.236;5.710;2023-07-13T09:26:01;18.10;99.90
18502;DHT22;68437;52.236;5.710;2023-07-13T09:28:34;17.80;99.90
18502;DHT22;68437;52.236;5.710;2023-07-13T09:31:06;17.60;99.90
18502;DHT22;68437;52.236;5.710;2023-07-13T09:33:34;17.30;99.90
18502;DHT22;68437;52.236;5.710;2023-07-13T09:36:05;17.30;99.90
18502;DHT22;68437;52.236;5.710;2023-07-13T09:38:39;17.30;99.90
18502;DHT22;68437;52.236;5.710;2023-07-13T09:41:19;17.50;99.90
18502;DHT22;68437;52.236;5.710;2023-07-13T09:44:07;17.90;99.90
18502;DHT22;68437;52.236;5.710;2023-07-13T09:46:37;18.50;99.90
18502;DHT22;68437;52.236;5.710;2023-07-13T09:49:10;18.70;99.90
18502;DHT22;68437;52.236;5.710;2023-07-13T09:51:38;19.10;99.90
18502;DHT22;68437;52.236;5.710;2023-07-13T09:54:20;19.30;99.90
18502;DHT22;68437;52.236;5.710;2023-07-13T09:56:54;19.40;99.90
18502;DHT22;68437;52.236;5.710;2023-07-13T09:59:23;19.50;99.90
18502;DHT22;68437;52.236;5.710;2023-07-13T10:01:50;19.60;99.90
18502;DHT22;68437;52.236;5.710;2023-07-13T10:04:22;19.80;99.90
18502;DHT22;68437;52.236;5.710;2023-07-13T10:07:04;19.80;99.90
18502;DHT22;68437;52.236;5.710;2023-07-13T10:09:35;19.90;99.90
18502;DHT22;68437;52.236;5.710;2023-07-13T10:12:02;20.10;99.90
18502;DHT22;68437;52.236;5.710;2023-07-13T10:14:29;20.40;99.90
18502;DHT22;68437;52.236;5.710;2023-07-13T10:16:59;20.40;99.90
18502;DHT22;68437;52.236;5.710;2023-07-13T10:19:32;20.50;99.90
18502;DHT22;68437;52.236;5.710;2023-07-13T10:22:14;20.40;99.90
18502;DHT22;68437;52.236;5.710;2023-07-13T10:24:44;19.90;99.90
18502;DHT22;68437;52.236;5.710;2023-07-13T10:27:16;19.50;99.90
18502;DHT22;68437;52.236;5.710;2023-07-13T10:29:59;19.10;99.90
18502;DHT22;68437;52.236;5.710;2023-07-13T10:32:27;18.90;99.90
18502;DHT22;68437;52.236;5.710;2023-07-13T10:34:56;18.90;99.90
18502;DHT22;68437;52.236;5.710;2023-07-13T10:37:29;19.30;99.90
18502;DHT22;68437;52.236;5.710;2023-07-13T10:40:00;19.60;99.90
18502;DHT22;68437;52.236;5.710;2023-07-13T10:42:32;19.70;99.90
18502;DHT22;68437;52.236;5.710;2023-07-13T10:45:01;19.80;99.90
18502;DHT22;68437;52.236;5.710;2023-07-13T10:47:28;20.40;99.90
18502;DHT22;68437;52.236;5.710;2023-07-13T10:49:58;20.80;99.90
18502;DHT22;68437;52.236;5.710;2023-07-13T10:52:44;20.90;99.90
18502;DHT22;68437;52.236;5.710;2023-07-13T10:55:31;20.50;99.90
18502;DHT22;68437;52.236;5.710;2023-07-13T10:58:01;20.30;99.90
18502;DHT22;68437;52.236;5.710;2023-07-13T11:00:31;20.00;99.90
18502;DHT22;68437;52.236;5.710;2023-07-13T11:02:59;20.10;99.90
18502;DHT22;68437;52.236;5.710;2023-07-13T11:05:30;20.60;99.90
18502;DHT22;68437;52.236;5.710;2023-07-13T11:08:04;21.00;99.90
18502;DHT22;68437;52.236;5.710;2023-07-13T11:10:50;21.50;99.90
18502;DHT22;68437;52.236;5.710;2023-07-13T11:13:39;21.50;99.90
18502;DHT22;68437;52.236;5.710;2023-07-13T11:16:50;21.20;99.90
18502;DHT22;68437;52.236;5.710;2023-07-13T11:19:38;21.20;99.90
18502;DHT22;68437;52.236;5.710;2023-07-13T11:22:16;21.50;99.90
18502;DHT22;68437;52.236;5.710;2023-07-13T11:24:59;21.40;99.90
18502;DHT22;68437;52.236;5.710;2023-07-13T11:27:42;21.80;99.90
18502;DHT22;68437;52.236;5.710;2023-07-13T11:30:25;22.30;99.90
18502;DHT22;68437;52.236;5.710;2023-07-13T11:33:10;22.20;99.90
18502;DHT22;68437;52.236;5.710;2023-07-13T11:35:46;21.70;99.90
18502;DHT22;68437;52.236;5.710;2023-07-13T11:38:19;21.20;99.90
18502;DHT22;68437;52.236;5.710;2023-07-13T11:40:48;20.70;99.90
18502;DHT22;68437;52.236;5.710;2023-07-13T11:43:23;20.00;99.90
18502;DHT22;68437;52.236;5.710;2023-07-13T11:45:51;19.60;99.90
18502;DHT22;68437;52.236;5.710;2023-07-13T11:48:27;19.40;99.90
18502;DHT22;68437;52.236;5.710;2023-07-13T11:50:57;19.20;99.90
18502;DHT22;68437;52.236;5.710;2023-07-13T11:53:31;19.50;99.90
18502;DHT22;68437;52.236;5.710;2023-07-13T11:56:02;19.70;99.90
18502;DHT22;68437;52.236;5.710;2023-07-13T11:58:30;19.90;99.90
18502;DHT22;68437;52.236;5.710;2023-07-13T12:00:59;20.10;99.90
18502;DHT22;68437;52.236;5.710;2023-07-13T12:03:30;20.40;99.90
18502;DHT22;68437;52.236;5.710;2023-07-13T12:06:01;20.10;99.90
18502;DHT22;68437;52.236;5.710;2023-07-13T12:08:29;19.80;99.90
18502;DHT22;68437;52.236;5.710;2023-07-13T12:11:02;19.70;99.90
18502;DHT22;68437;52.236;5.710;2023-07-13T12:13:36;19.70;99.90
18502;DHT22;68437;52.236;5.710;2023-07-13T12:16:16;19.70;99.90
18502;DHT22;68437;52.236;5.710;2023-07-13T12:18:46;20.20;99.90
18502;DHT22;68437;52.236;5.710;2023-07-13T12:21:17;21.00;99.90
18502;DHT22;68437;52.236;5.710;2023-07-13T12:23:48;21.60;99.90
18502;DHT22;68437;52.236;5.710;2023-07-13T12:26:17;21.70;99.90
18502;DHT22;68437;52.236;5.710;2023-07-13T12:28:47;21.50;99.90
18502;DHT22;68437;52.236;5.710;2023-07-13T12:31:31;21.30;99.90
18502;DHT22;68437;52.236;5.710;2023-07-13T12:34:01;21.10;99.90
18502;DHT22;68437;52.236;5.710;2023-07-13T12:36:31;20.90;99.90
18502;DHT22;68437;52.236;5.710;2023-07-13T12:39:13;20.90;99.90
18502;DHT22;68437;52.236;5.710;2023-07-13T12:41:43;20.80;99.90
18502;DHT22;68437;52.236;5.710;2023-07-13T12:44:17;21.00;99.90
18502;DHT22;68437;52.236;5.710;2023-07-13T12:46:57;21.40;99.90
18502;DHT22;68437;52.236;5.710;2023-07-13T12:49:27;21.60;99.90
18502;DHT22;68437;52.236;5.710;2023-07-13T12:52:00;21.50;99.90
18502;DHT22;68437;52.236;5.710;2023-07-13T12:54:30;21.30;99.90
18502;DHT22;68437;52.236;5.710;2023-07-13T12:56:59;21.20;99.90
18502;DHT22;68437;52.236;5.710;2023-07-13T12:59:30;21.10;99.90
18502;DHT22;68437;52.236;5.710;2023-07-13T13:02:00;21.20;99.90
18502;DHT22;68437;52.236;5.710;2023-07-13T13:04:28;21.70;99.90
18502;DHT22;68437;52.236;5.710;2023-07-13T13:07:03;22.30;99.90
18502;DHT22;68437;52.236;5.710;2023-07-13T13:09:34;22.30;99.90
18502;DHT22;68437;52.236;5.710;2023-07-13T13:12:04;22.00;99.90
18502;DHT22;68437;52.236;5.710;2023-07-13T13:14:32;21.70;99.90
18502;DHT22;68437;52.236;5.710;2023-07-13T13:16:59;21.50;99.90
18502;DHT22;68437;52.236;5.710;2023-07-13T13:19:28;21.30;99.90
18502;DHT22;68437;52.236;5.710;2023-07-13T13:21:56;21.10;99.90
18502;DHT22;68437;52.236;5.710;2023-07-13T13:24:27;21.00;99.90
18502;DHT22;68437;52.236;5.710;2023-07-13T13:27:01;21.10;99.90
18502;DHT22;68437;52.236;5.710;2023-07-13T13:29:31;21.40;99.90
18502;DHT22;68437;52.236;5.710;2023-07-13T13:32:00;21.60;99.90
18502;DHT22;68437;52.236;5.710;2023-07-13T13:34:27;21.70;99.90
18502;DHT22;68437;52.236;5.710;2023-07-13T13:36:55;21.60;99.90
18502;DHT22;68437;52.236;5.710;2023-07-13T13:39:24;21.50;99.90
18502;DHT22;68437;52.236;5.710;2023-07-13T13:41:52;21.40;99.90
18502;DHT22;68437;52.236;5.710;2023-07-13T13:44:22;21.40;99.90
18502;DHT22;68437;52.236;5.710;2023-07-13T13:46:52;21.40;99.90
18502;DHT22;68437;52.236;5.710;2023-07-13T13:49:22;21.30;99.90
18502;DHT22;68437;52.236;5.710;2023-07-13T13:51:50;21.20;99.90
18502;DHT22;68437;52.236;5.710;2023-07-13T13:54:19;21.10;99.90
18502;DHT22;68437;52.236;5.710;2023-07-13T13:56:48;20.90;99.90
18502;DHT22;68437;52.236;5.710;2023-07-13T13:59:15;21.00;99.90
18502;DHT22;68437;52.236;5.710;2023-07-13T14:01:45;21.00;99.90
18502;DHT22;68437;52.236;5.710;2023-07-13T14:04:15;21.10;99.90
18502;DHT22;68437;52.236;5.710;2023-07-13T14:06:43;21.20;99.90
18502;DHT22;68437;52.236;5.710;2023-07-13T14:09:14;21.50;99.90
18502;DHT22;68437;52.236;5.710;2023-07-13T14:11:42;21.50;99.90
18502;DHT22;68437;52.236;5.710;2023-07-13T14:14:14;21.60;99.90
18502;DHT22;68437;52.236;5.710;2023-07-13T14:16:43;21.80;99.90
18502;DHT22;68437;52.236;5.710;2023-07-13T14:19:17;22.00;99.90
18502;DHT22;68437;52.236;5.710;2023-07-13T14:21:47;21.90;99.90
18502;DHT22;68437;52.236;5.710;2023-07-13T14:24:15;21.70;99.90
18502;DHT22;68437;52.236;5.710;2023-07-13T14:26:42;21.60;99.90
18502;DHT22;68437;52.236;5.710;2023-07-13T14:29:13;21.60;99.90
18502;DHT22;68437;52.236;5.710;2023-07-13T14:31:42;21.60;99.90
18502;DHT22;68437;52.236;5.710;2023-07-13T14:34:13;21.50;99.90
18502;DHT22;68437;52.236;5.710;2023-07-13T14:36:42;21.30;99.90
18502;DHT22;68437;52.236;5.710;2023-07-13T14:39:13;21.40;99.90
18502;DHT22;68437;52.236;5.710;2023-07-13T14:41:42;21.30;99.90
18502;DHT22;68437;52.236;5.710;2023-07-13T14:44:11;21.50;99.90
18502;DHT22;68437;52.236;5.710;2023-07-13T14:46:39;21.70;99.90
18502;DHT22;68437;52.236;5.710;2023-07-13T14:49:13;21.80;99.90
18502;DHT22;68437;52.236;5.710;2023-07-13T14:51:41;21.70;99.90
18502;DHT22;68437;52.236;5.710;2023-07-13T14:54:10;21.60;99.90
18502;DHT22;68437;52.236;5.710;2023-07-13T14:56:37;21.60;99.90
18502;DHT22;68437;52.236;5.710;2023-07-13T14:59:07;21.50;99.90
18502;DHT22;68437;52.236;5.710;2023-07-13T15:01:39;21.50;99.90
18502;DHT22;68437;52.236;5.710;2023-07-13T15:04:08;21.60;99.90
18502;DHT22;68437;52.236;5.710;2023-07-13T15:06:53;21.60;99.90
18502;DHT22;68437;52.236;5.710;2023-07-13T15:09:20;21.50;99.90
18502;DHT22;68437;52.236;5.710;2023-07-13T15:11:50;21.60;99.90
18502;DHT22;68437;52.236;5.710;2023-07-13T15:14:17;21.50;99.90
18502;DHT22;68437;52.236;5.710;2023-07-13T15:16:44;21.40;99.90
18502;DHT22;68437;52.236;5.710;2023-07-13T15:19:13;21.50;99.90
18502;DHT22;68437;52.236;5.710;2023-07-13T15:21:40;21.60;99.90
18502;DHT22;68437;52.236;5.710;2023-07-13T15:24:08;21.60;99.90
18502;DHT22;68437;52.236;5.710;2023-07-13T15:26:36;21.50;99.90
18502;DHT22;68437;52.236;5.710;2023-07-13T15:29:04;21.40;99.90
18502;DHT22;68437;52.236;5.710;2023-07-13T15:31:33;21.40;99.90
18502;DHT22;68437;52.236;5.710;2023-07-13T15:34:09;21.40;99.90
18502;DHT22;68437;52.236;5.710;2023-07-13T15:36:38;21.30;99.90
18502;DHT22;68437;52.236;5.710;2023-07-13T15:39:05;21.30;99.90
18502;DHT22;68437;52.236;5.710;2023-07-13T15:41:33;21.40;99.90
18502;DHT22;68437;52.236;5.710;2023-07-13T15:44:07;21.40;99.90
18502;DHT22;68437;52.236;5.710;2023-07-13T15:46:40;21.50;99.90
18502;DHT22;68437;52.236;5.710;2023-07-13T15:49:09;21.40;99.90